sensor_id;sensor_type;location;lat;lon;timestamp;noise_LAeq;noise_LA_min;noise_LA_max;noise_LA01;noise_LA95
77134;Laerm;25175;50.140;18.990;2024-01-06T00:09:35;36.54;33.83;47.01;;
77134;Laerm;25175;50.140;18.990;2024-01-06T00:13:31;35.95;33.63;40.00;;
77134;Laerm;25175;50.140;18.990;2024-01-06T00:16:53;36.06;33.79;39.06;;
77134;Laerm;25175;50.140;18.990;2024-01-06T00:20:24;38.08;33.99;53.95;;
77134;Laerm;25175;50.140;18.990;2024-01-06T00:24:02;37.56;34.15;51.89;;
77134;Laerm;25175;50.140;18.990;2024-01-06T00:31:30;36.21;33.88;42.77;;
77134;Laerm;25175;50.140;18.990;2024-01-06T00:35:12;35.85;33.98;38.60;;
77134;Laerm;25175;50.140;18.990;2024-01-06T00:38:45;40.00;33.66;52.08;;
77134;Laerm;25175;50.140;18.990;2024-01-06T00:42:22;37.26;33.24;51.90;;
77134;Laerm;25175;50.140;18.990;2024-01-06T00:45:58;35.47;33.35;39.63;;
77134;Laerm;25175;50.140;18.990;2024-01-06T00:49:13;42.15;33.74;58.45;;
77134;Laerm;25175;50.140;18.990;2024-01-06T00:52:27;39.17;34.10;52.42;;
77134;Laerm;25175;50.140;18.990;2024-01-06T00:55:39;36.56;34.59;39.60;;
77134;Laerm;25175;50.140;18.990;2024-01-06T00:58:49;38.34;34.42;50.80;;
77134;Laerm;25175;50.140;18.990;2024-01-06T01:10:30;36.64;34.44;43.03;;
77134;Laerm;25175;50.140;18.990;2024-01-06T01:13:00;37.37;34.84;44.01;;
77134;Laerm;25175;50.140;18.990;2024-01-06T01:19:44;36.65;34.59;39.00;;
77134;Laerm;25175;50.140;18.990;2024-01-06T01:23:03;36.34;34.56;41.88;;
77134;Laerm;25175;50.140;18.990;2024-01-06T01:26:36;36.14;34.16;38.91;;
77134;Laerm;25175;50.140;18.990;2024-01-06T01:29:50;36.31;34.38;39.20;;
77134;Laerm;25175;50.140;18.990;2024-01-06T01:32:57;36.86;34.97;42.40;;
77134;Laerm;25175;50.140;18.990;2024-01-06T01:36:05;38.46;34.50;51.70;;
77134;Laerm;25175;50.140;18.990;2024-01-06T01:39:18;37.25;34.95;41.15;;
77134;Laerm;25175;50.140;18.990;2024-01-06T01:42:52;36.72;34.67;39.51;;
77134;Laerm;25175;50.140;18.990;2024-01-06T01:46:01;36.46;34.64;38.70;;
77134;Laerm;25175;50.140;18.990;2024-01-06T01:49:10;37.25;34.57;45.53;;
77134;Laerm;25175;50.140;18.990;2024-01-06T01:52:36;36.60;34.62;41.10;;
77134;Laerm;25175;50.140;18.990;2024-01-06T01:55:48;36.77;34.47;44.62;;
77134;Laerm;25175;50.140;18.990;2024-01-06T01:59:11;37.03;34.98;39.56;;
77134;Laerm;25175;50.140;18.990;2024-01-06T02:02:34;37.18;34.67;40.72;;
77134;Laerm;25175;50.140;18.990;2024-01-06T02:05:46;37.64;34.95;48.83;;
77134;Laerm;25175;50.140;18.990;2024-01-06T02:09:21;40.35;34.74;58.76;;
77134;Laerm;25175;50.140;18.990;2024-01-06T02:12:50;37.85;35.21;41.70;;
77134;Laerm;25175;50.140;18.990;2024-01-06T02:20:46;38.16;35.45;42.25;;
77134;Laerm;25175;50.140;18.990;2024-01-06T02:23:56;38.52;35.35;46.18;;
77134;Laerm;25175;50.140;18.990;2024-01-06T02:27:14;37.92;35.05;42.55;;
77134;Laerm;25175;50.140;18.990;2024-01-06T02:30:37;38.29;35.47;41.32;;
77134;Laerm;25175;50.140;18.990;2024-01-06T02:33:46;38.80;35.82;43.83;;
77134;Laerm;25175;50.140;18.990;2024-01-06T02:37:19;38.47;35.36;43.47;;
77134;Laerm;25175;50.140;18.990;2024-01-06T02:40:49;38.79;35.75;48.09;;
77134;Laerm;25175;50.140;18.990;2024-01-06T02:44:06;38.06;35.18;42.21;;
77134;Laerm;25175;50.140;18.990;2024-01-06T02:47:59;39.62;35.10;52.42;;
77134;Laerm;25175;50.140;18.990;2024-01-06T02:51:06;40.04;35.62;55.06;;
77134;Laerm;25175;50.140;18.990;2024-01-06T02:54:15;38.49;35.17;43.35;;
77134;Laerm;25175;50.140;18.990;2024-01-06T02:57:31;39.53;35.20;54.72;;
77134;Laerm;25175;50.140;18.990;2024-01-06T03:00:38;37.99;34.85;46.37;;
77134;Laerm;25175;50.140;18.990;2024-01-06T03:03:50;39.46;34.89;55.41;;
77134;Laerm;25175;50.140;18.990;2024-01-06T03:07:08;39.30;34.87;53.58;;
77134;Laerm;25175;50.140;18.990;2024-01-06T03:10:18;37.44;35.19;41.44;;
77134;Laerm;25175;50.140;18.990;2024-01-06T03:22:25;38.21;35.20;43.52;;
77134;Laerm;25175;50.140;18.990;2024-01-06T03:25:33;38.09;35.58;42.55;;
77134;Laerm;25175;50.140;18.990;2024-01-06T03:28:40;39.33;35.63;52.65;;
77134;Laerm;25175;50.140;18.990;2024-01-06T03:31:48;38.09;35.28;51.28;;
77134;Laerm;25175;50.140;18.990;2024-01-06T03:35:24;37.68;34.93;51.77;;
77134;Laerm;25175;50.140;18.990;2024-01-06T03:39:07;37.16;34.50;40.92;;
77134;Laerm;25175;50.140;18.990;2024-01-06T03:42:13;36.97;34.65;39.75;;
77134;Laerm;25175;50.140;18.990;2024-01-06T03:45:46;37.96;35.13;45.00;;
77134;Laerm;25175;50.140;18.990;2024-01-06T03:48:58;38.17;35.30;45.19;;
77134;Laerm;25175;50.140;18.990;2024-01-06T03:52:13;37.99;35.47;42.53;;
77134;Laerm;25175;50.140;18.990;2024-01-06T03:56:22;39.31;35.01;56.70;;
77134;Laerm;25175;50.140;18.990;2024-01-06T03:59:31;37.31;34.92;40.09;;
77134;Laerm;25175;50.140;18.990;2024-01-06T04:02:43;37.12;34.93;41.37;;
77134;Laerm;25175;50.140;18.990;2024-01-06T04:06:08;37.41;34.77;55.24;;
77134;Laerm;25175;50.140;18.990;2024-01-06T04:13:10;38.85;35.15;52.35;;
77134;Laerm;25175;50.140;18.990;2024-01-06T04:16:26;38.02;35.10;42.21;;
77134;Laerm;25175;50.140;18.990;2024-01-06T04:19:39;43.12;35.79;58.73;;
77134;Laerm;25175;50.140;18.990;2024-01-06T04:23:06;39.13;35.39;47.20;;
77134;Laerm;25175;50.140;18.990;2024-01-06T04:30:30;38.18;35.10;50.54;;
77134;Laerm;25175;50.140;18.990;2024-01-06T04:34:03;38.10;35.18;44.31;;
77134;Laerm;25175;50.140;18.990;2024-01-06T04:41:03;38.97;35.22;47.70;;
77134;Laerm;25175;50.140;18.990;2024-01-06T04:44:10;41.09;35.74;57.35;;
77134;Laerm;25175;50.140;18.990;2024-01-06T04:47:30;39.28;35.72;52.00;;
77134;Laerm;25175;50.140;18.990;2024-01-06T04:50:40;41.34;35.96;59.49;;
77134;Laerm;25175;50.140;18.990;2024-01-06T04:54:23;38.31;35.48;51.96;;
77134;Laerm;25175;50.140;18.990;2024-01-06T04:57:59;39.22;35.58;51.51;;
77134;Laerm;25175;50.140;18.990;2024-01-06T05:05:49;41.62;35.30;59.07;;
77134;Laerm;25175;50.140;18.990;2024-01-06T05:09:37;39.50;35.85;48.38;;
77134;Laerm;25175;50.140;18.990;2024-01-06T05:12:58;39.85;36.41;51.93;;
77134;Laerm;25175;50.140;18.990;2024-01-06T05:16:06;38.87;36.15;43.61;;
77134;Laerm;25175;50.140;18.990;2024-01-06T05:19:31;43.70;35.73;59.00;;
77134;Laerm;25175;50.140;18.990;2024-01-06T05:22:43;47.49;36.17;62.04;;
77134;Laerm;25175;50.140;18.990;2024-01-06T05:25:59;40.01;35.21;50.51;;
77134;Laerm;25175;50.140;18.990;2024-01-06T05:29:28;40.27;34.97;56.53;;
77134;Laerm;25175;50.140;18.990;2024-01-06T05:32:38;39.10;35.12;48.80;;
77134;Laerm;25175;50.140;18.990;2024-01-06T05:36:19;38.18;35.41;48.62;;
77134;Laerm;25175;50.140;18.990;2024-01-06T05:39:29;38.90;35.50;52.05;;
77134;Laerm;25175;50.140;18.990;2024-01-06T05:42:35;39.37;35.24;50.89;;
77134;Laerm;25175;50.140;18.990;2024-01-06T05:46:21;37.84;35.22;44.34;;
77134;Laerm;25175;50.140;18.990;2024-01-06T05:49:30;46.02;35.88;61.63;;
77134;Laerm;25175;50.140;18.990;2024-01-06T05:53:06;37.74;34.93;42.03;;
77134;Laerm;25175;50.140;18.990;2024-01-06T05:56:33;41.59;35.54;53.87;;
77134;Laerm;25175;50.140;18.990;2024-01-06T06:00:09;40.95;35.34;54.22;;
77134;Laerm;25175;50.140;18.990;2024-01-06T06:12:21;38.93;35.06;52.14;;
77134;Laerm;25175;50.140;18.990;2024-01-06T06:15:28;37.75;35.15;43.15;;
77134;Laerm;25175;50.140;18.990;2024-01-06T06:18:38;41.89;35.18;55.64;;
77134;Laerm;25175;50.140;18.990;2024-01-06T06:21:52;39.36;34.99;54.01;;
77134;Laerm;25175;50.140;18.990;2024-01-06T06:25:17;40.05;35.18;52.63;;
77134;Laerm;25175;50.140;18.990;2024-01-06T06:28:45;40.96;35.87;55.04;;
77134;Laerm;25175;50.140;18.990;2024-01-06T06:32:03;41.50;35.78;54.61;;
77134;Laerm;25175;50.140;18.990;2024-01-06T06:35:46;38.68;35.73;47.17;;
77134;Laerm;25175;50.140;18.990;2024-01-06T06:38:58;40.16;36.05;53.45;;
77134;Laerm;25175;50.140;18.990;2024-01-06T06:42:08;42.49;35.90;59.48;;
77134;Laerm;25175;50.140;18.990;2024-01-06T06:45:21;43.52;37.13;53.31;;
77134;Laerm;25175;50.140;18.990;2024-01-06T06:48:27;42.53;36.35;57.90;;
77134;Laerm;25175;50.140;18.990;2024-01-06T06:51:31;44.47;35.94;59.45;;
77134;Laerm;25175;50.140;18.990;2024-01-06T06:54:37;44.01;36.24;56.92;;
77134;Laerm;25175;50.140;18.990;2024-01-06T06:57:41;40.12;36.75;49.94;;
77134;Laerm;25175;50.140;18.990;2024-01-06T07:00:49;39.25;35.54;51.30;;
77134;Laerm;25175;50.140;18.990;2024-01-06T07:03:55;38.33;35.50;45.71;;
77134;Laerm;25175;50.140;18.990;2024-01-06T07:07:01;39.89;35.46;55.58;;
77134;Laerm;25175;50.140;18.990;2024-01-06T07:10:08;39.32;35.52;50.49;;
77134;Laerm;25175;50.140;18.990;2024-01-06T07:13:13;43.04;35.60;59.51;;
77134;Laerm;25175;50.140;18.990;2024-01-06T07:16:20;39.49;35.60;50.17;;
77134;Laerm;25175;50.140;18.990;2024-01-06T07:19:25;48.36;35.62;68.56;;
77134;Laerm;25175;50.140;18.990;2024-01-06T07:22:30;40.25;35.45;55.57;;
77134;Laerm;25175;50.140;18.990;2024-01-06T07:25:36;41.65;35.76;54.20;;
77134;Laerm;25175;50.140;18.990;2024-01-06T07:28:41;39.66;35.52;53.39;;
77134;Laerm;25175;50.140;18.990;2024-01-06T07:31:49;41.77;35.83;55.42;;
77134;Laerm;25175;50.140;18.990;2024-01-06T07:34:53;40.26;35.79;55.60;;
77134;Laerm;25175;50.140;18.990;2024-01-06T07:37:59;41.84;36.21;55.16;;
77134;Laerm;25175;50.140;18.990;2024-01-06T07:41:04;43.55;36.45;59.05;;
77134;Laerm;25175;50.140;18.990;2024-01-06T07:44:10;40.89;36.33;53.05;;
77134;Laerm;25175;50.140;18.990;2024-01-06T07:47:17;42.43;36.62;55.07;;
77134;Laerm;25175;50.140;18.990;2024-01-06T07:50:22;45.26;35.93;68.14;;
77134;Laerm;25175;50.140;18.990;2024-01-06T07:53:27;44.50;36.01;61.65;;
77134;Laerm;25175;50.140;18.990;2024-01-06T07:56:32;42.53;36.05;58.16;;
77134;Laerm;25175;50.140;18.990;2024-01-06T07:59:37;42.67;35.97;55.34;;
77134;Laerm;25175;50.140;18.990;2024-01-06T08:02:45;43.05;35.26;57.24;;
77134;Laerm;25175;50.140;18.990;2024-01-06T08:05:49;43.89;35.87;57.18;;
77134;Laerm;25175;50.140;18.990;2024-01-06T08:08:54;39.10;35.56;51.10;;
77134;Laerm;25175;50.140;18.990;2024-01-06T08:11:59;47.10;35.98;59.19;;
77134;Laerm;25175;50.140;18.990;2024-01-06T08:15:06;40.95;35.57;55.74;;
77134;Laerm;25175;50.140;18.990;2024-01-06T08:18:13;40.84;35.93;53.39;;
77134;Laerm;25175;50.140;18.990;2024-01-06T08:21:20;41.25;35.71;54.03;;
77134;Laerm;25175;50.140;18.990;2024-01-06T08:24:25;44.00;36.42;58.56;;
77134;Laerm;25175;50.140;18.990;2024-01-06T08:27:30;40.37;36.44;55.27;;
77134;Laerm;25175;50.140;18.990;2024-01-06T08:30:34;40.15;35.42;52.57;;
77134;Laerm;25175;50.140;18.990;2024-01-06T08:33:42;45.56;36.94;67.42;;
77134;Laerm;25175;50.140;18.990;2024-01-06T08:36:47;45.92;36.59;57.32;;
77134;Laerm;25175;50.140;18.990;2024-01-06T08:39:53;40.39;36.02;52.86;;
77134;Laerm;25175;50.140;18.990;2024-01-06T08:42:57;43.46;36.19;63.14;;
77134;Laerm;25175;50.140;18.990;2024-01-06T08:46:03;43.38;36.02;60.37;;
77134;Laerm;25175;50.140;18.990;2024-01-06T08:49:11;42.69;35.95;55.13;;
77134;Laerm;25175;50.140;18.990;2024-01-06T08:52:16;44.76;35.64;60.49;;
77134;Laerm;25175;50.140;18.990;2024-01-06T08:55:21;44.36;36.28;56.11;;
77134;Laerm;25175;50.140;18.990;2024-01-06T08:58:26;44.55;36.24;57.93;;
77134;Laerm;25175;50.140;18.990;2024-01-06T09:01:31;42.27;35.68;57.51;;
77134;Laerm;25175;50.140;18.990;2024-01-06T09:04:40;42.48;36.08;55.80;;
77134;Laerm;25175;50.140;18.990;2024-01-06T09:07:45;43.66;35.93;58.57;;
77134;Laerm;25175;50.140;18.990;2024-01-06T09:10:53;40.45;35.82;56.90;;
77134;Laerm;25175;50.140;18.990;2024-01-06T09:13:59;43.82;35.79;57.39;;
77134;Laerm;25175;50.140;18.990;2024-01-06T09:17:04;40.87;35.55;53.77;;
77134;Laerm;25175;50.140;18.990;2024-01-06T09:20:12;42.31;35.80;57.14;;
77134;Laerm;25175;50.140;18.990;2024-01-06T09:23:17;46.66;35.79;60.97;;
77134;Laerm;25175;50.140;18.990;2024-01-06T09:26:22;41.57;36.07;56.74;;
77134;Laerm;25175;50.140;18.990;2024-01-06T09:29:27;38.61;35.38;51.05;;
77134;Laerm;25175;50.140;18.990;2024-01-06T09:32:32;44.38;35.78;60.37;;
77134;Laerm;25175;50.140;18.990;2024-01-06T09:35:40;39.90;35.73;55.54;;
77134;Laerm;25175;50.140;18.990;2024-01-06T09:38:47;41.49;35.63;54.08;;
77134;Laerm;25175;50.140;18.990;2024-01-06T09:41:52;40.41;35.56;55.53;;
77134;Laerm;25175;50.140;18.990;2024-01-06T09:44:57;46.83;35.74;58.43;;
77134;Laerm;25175;50.140;18.990;2024-01-06T09:48:11;39.35;35.36;52.68;;
77134;Laerm;25175;50.140;18.990;2024-01-06T09:51:21;40.66;35.62;53.69;;
77134;Laerm;25175;50.140;18.990;2024-01-06T09:54:30;41.34;35.60;54.04;;
77134;Laerm;25175;50.140;18.990;2024-01-06T09:57:38;44.59;35.69;58.48;;
77134;Laerm;25175;50.140;18.990;2024-01-06T10:00:43;41.26;35.26;55.41;;
77134;Laerm;25175;50.140;18.990;2024-01-06T10:03:48;46.52;36.22;57.03;;
77134;Laerm;25175;50.140;18.990;2024-01-06T10:06:56;46.88;35.72;59.23;;
77134;Laerm;25175;50.140;18.990;2024-01-06T10:10:01;44.51;34.83;56.58;;
77134;Laerm;25175;50.140;18.990;2024-01-06T10:13:06;40.95;35.81;53.58;;
77134;Laerm;25175;50.140;18.990;2024-01-06T10:16:11;45.30;35.07;57.91;;
77134;Laerm;25175;50.140;18.990;2024-01-06T10:19:16;43.82;35.49;60.01;;
77134;Laerm;25175;50.140;18.990;2024-01-06T10:22:24;39.88;35.69;52.65;;
77134;Laerm;25175;50.140;18.990;2024-01-06T10:25:29;42.50;35.96;61.27;;
77134;Laerm;25175;50.140;18.990;2024-01-06T10:28:34;42.72;35.55;60.94;;
77134;Laerm;25175;50.140;18.990;2024-01-06T10:31:40;42.25;35.37;57.43;;
77134;Laerm;25175;50.140;18.990;2024-01-06T10:34:45;44.70;35.09;58.75;;
77134;Laerm;25175;50.140;18.990;2024-01-06T10:37:54;44.40;34.82;60.62;;
77134;Laerm;25175;50.140;18.990;2024-01-06T10:41:01;42.41;34.41;57.24;;
77134;Laerm;25175;50.140;18.990;2024-01-06T10:44:11;50.19;34.60;67.57;;
77134;Laerm;25175;50.140;18.990;2024-01-06T10:47:19;45.47;34.52;62.90;;
77134;Laerm;25175;50.140;18.990;2024-01-06T10:50:27;47.32;34.53;60.40;;
77134;Laerm;25175;50.140;18.990;2024-01-06T10:53:36;44.53;34.38;61.61;;
77134;Laerm;25175;50.140;18.990;2024-01-06T10:56:43;45.02;34.59;57.39;;
77134;Laerm;25175;50.140;18.990;2024-01-06T10:59:51;46.55;34.52;62.58;;
77134;Laerm;25175;50.140;18.990;2024-01-06T11:02:59;44.69;34.63;62.52;;
77134;Laerm;25175;50.140;18.990;2024-01-06T11:06:06;45.40;34.24;65.92;;
77134;Laerm;25175;50.140;18.990;2024-01-06T11:09:24;45.00;33.75;64.92;;
77134;Laerm;25175;50.140;18.990;2024-01-06T11:12:33;47.40;34.28;63.70;;
77134;Laerm;25175;50.140;18.990;2024-01-06T11:15:47;42.83;34.00;59.40;;
77134;Laerm;25175;50.140;18.990;2024-01-06T11:18:51;45.54;34.51;58.43;;
77134;Laerm;25175;50.140;18.990;2024-01-06T11:21:57;40.52;33.13;55.80;;
77134;Laerm;25175;50.140;18.990;2024-01-06T11:25:25;42.36;33.32;56.40;;
77134;Laerm;25175;50.140;18.990;2024-01-06T11:28:30;42.94;34.14;59.20;;
77134;Laerm;25175;50.140;18.990;2024-01-06T11:31:36;43.73;33.89;60.10;;
77134;Laerm;25175;50.140;18.990;2024-01-06T11:34:42;40.39;33.37;53.88;;
77134;Laerm;25175;50.140;18.990;2024-01-06T11:37:54;41.19;33.51;56.13;;
77134;Laerm;25175;50.140;18.990;2024-01-06T11:41:03;38.57;33.93;54.16;;
77134;Laerm;25175;50.140;18.990;2024-01-06T11:44:07;50.90;33.47;69.57;;
77134;Laerm;25175;50.140;18.990;2024-01-06T11:47:13;43.31;33.22;66.28;;
77134;Laerm;25175;50.140;18.990;2024-01-06T11:50:25;42.31;33.27;59.74;;
77134;Laerm;25175;50.140;18.990;2024-01-06T11:53:30;42.51;34.07;55.51;;
77134;Laerm;25175;50.140;18.990;2024-01-06T11:56:38;45.05;33.53;59.92;;
77134;Laerm;25175;50.140;18.990;2024-01-06T11:59:43;50.13;33.61;73.35;;
77134;Laerm;25175;50.140;18.990;2024-01-06T12:02:49;47.20;34.28;61.68;;
77134;Laerm;25175;50.140;18.990;2024-01-06T12:06:01;46.67;34.21;60.67;;
77134;Laerm;25175;50.140;18.990;2024-01-06T12:09:08;42.46;33.99;56.48;;
77134;Laerm;25175;50.140;18.990;2024-01-06T12:12:17;43.57;33.51;62.38;;
77134;Laerm;25175;50.140;18.990;2024-01-06T12:15:22;43.46;33.65;61.12;;
77134;Laerm;25175;50.140;18.990;2024-01-06T12:18:28;39.33;34.11;58.47;;
77134;Laerm;25175;50.140;18.990;2024-01-06T12:21:35;43.11;33.45;59.12;;
77134;Laerm;25175;50.140;18.990;2024-01-06T12:24:41;44.95;33.68;61.10;;
77134;Laerm;25175;50.140;18.990;2024-01-06T12:27:50;44.56;33.59;58.57;;
77134;Laerm;25175;50.140;18.990;2024-01-06T12:30:56;43.42;33.81;59.12;;
77134;Laerm;25175;50.140;18.990;2024-01-06T12:34:01;40.48;33.57;59.95;;
77134;Laerm;25175;50.140;18.990;2024-01-06T12:37:06;46.81;33.73;61.63;;
77134;Laerm;25175;50.140;18.990;2024-01-06T12:40:13;40.93;33.46;55.38;;
77134;Laerm;25175;50.140;18.990;2024-01-06T12:43:22;44.84;33.75;60.32;;
77134;Laerm;25175;50.140;18.990;2024-01-06T12:46:27;40.80;33.14;55.80;;
77134;Laerm;25175;50.140;18.990;2024-01-06T12:49:33;44.65;33.63;59.97;;
77134;Laerm;25175;50.140;18.990;2024-01-06T12:52:37;46.02;33.78;62.84;;
77134;Laerm;25175;50.140;18.990;2024-01-06T12:55:44;45.24;33.43;59.85;;
77134;Laerm;25175;50.140;18.990;2024-01-06T12:58:51;44.07;33.98;57.87;;
77134;Laerm;25175;50.140;18.990;2024-01-06T13:01:57;45.61;33.54;63.24;;
77134;Laerm;25175;50.140;18.990;2024-01-06T13:05:01;37.85;33.19;54.23;;
77134;Laerm;25175;50.140;18.990;2024-01-06T13:08:07;46.28;34.45;60.74;;
77134;Laerm;25175;50.140;18.990;2024-01-06T13:11:11;45.32;34.40;57.85;;
77134;Laerm;25175;50.140;18.990;2024-01-06T13:14:19;45.84;33.77;60.04;;
77134;Laerm;25175;50.140;18.990;2024-01-06T13:17:24;42.36;34.05;55.02;;
77134;Laerm;25175;50.140;18.990;2024-01-06T13:20:30;42.15;33.99;55.36;;
77134;Laerm;25175;50.140;18.990;2024-01-06T13:23:34;43.66;33.87;54.55;;
77134;Laerm;25175;50.140;18.990;2024-01-06T13:26:40;41.86;34.02;55.08;;
77134;Laerm;25175;50.140;18.990;2024-01-06T13:29:48;39.34;34.07;52.37;;
77134;Laerm;25175;50.140;18.990;2024-01-06T13:32:54;41.15;33.87;54.05;;
77134;Laerm;25175;50.140;18.990;2024-01-06T13:36:00;43.71;34.42;56.31;;
77134;Laerm;25175;50.140;18.990;2024-01-06T13:39:06;43.01;33.98;57.47;;
77134;Laerm;25175;50.140;18.990;2024-01-06T13:42:18;44.54;34.07;61.53;;
77134;Laerm;25175;50.140;18.990;2024-01-06T13:45:26;42.82;34.41;58.29;;
77134;Laerm;25175;50.140;18.990;2024-01-06T13:48:31;42.68;34.07;54.87;;
77134;Laerm;25175;50.140;18.990;2024-01-06T13:51:37;45.45;33.98;58.47;;
77134;Laerm;25175;50.140;18.990;2024-01-06T13:54:42;39.09;33.86;54.12;;
77134;Laerm;25175;50.140;18.990;2024-01-06T13:57:47;42.93;34.08;58.09;;
77134;Laerm;25175;50.140;18.990;2024-01-06T14:00:54;44.49;34.24;58.90;;
77134;Laerm;25175;50.140;18.990;2024-01-06T14:04:00;43.25;33.81;57.83;;
77134;Laerm;25175;50.140;18.990;2024-01-06T14:07:08;46.54;34.17;58.49;;
77134;Laerm;25175;50.140;18.990;2024-01-06T14:10:13;43.50;34.08;57.78;;
77134;Laerm;25175;50.140;18.990;2024-01-06T14:13:18;46.97;34.30;59.24;;
77134;Laerm;25175;50.140;18.990;2024-01-06T14:16:26;44.50;34.19;59.20;;
77134;Laerm;25175;50.140;18.990;2024-01-06T14:19:31;46.34;34.24;59.55;;
77134;Laerm;25175;50.140;18.990;2024-01-06T14:22:37;44.20;34.08;57.38;;
77134;Laerm;25175;50.140;18.990;2024-01-06T14:25:43;43.08;33.92;58.25;;
77134;Laerm;25175;50.140;18.990;2024-01-06T14:28:48;39.75;34.44;52.54;;
77134;Laerm;25175;50.140;18.990;2024-01-06T14:31:55;41.35;33.71;57.01;;
77134;Laerm;25175;50.140;18.990;2024-01-06T14:35:01;43.53;34.04;57.33;;
77134;Laerm;25175;50.140;18.990;2024-01-06T14:38:07;46.13;34.39;58.99;;
77134;Laerm;25175;50.140;18.990;2024-01-06T14:41:13;42.71;34.00;56.41;;
77134;Laerm;25175;50.140;18.990;2024-01-06T14:44:18;42.57;33.78;55.16;;
77134;Laerm;25175;50.140;18.990;2024-01-06T14:47:26;42.86;34.28;56.49;;
77134;Laerm;25175;50.140;18.990;2024-01-06T14:50:31;45.02;35.18;57.60;;
77134;Laerm;25175;50.140;18.990;2024-01-06T14:53:36;45.93;33.70;60.56;;
77134;Laerm;25175;50.140;18.990;2024-01-06T14:56:41;45.26;34.24;56.98;;
77134;Laerm;25175;50.140;18.990;2024-01-06T14:59:46;44.03;33.85;59.79;;
77134;Laerm;25175;50.140;18.990;2024-01-06T15:02:53;43.55;33.86;57.30;;
77134;Laerm;25175;50.140;18.990;2024-01-06T15:06:00;39.83;33.75;54.29;;
77134;Laerm;25175;50.140;18.990;2024-01-06T15:09:05;40.90;34.51;56.75;;
77134;Laerm;25175;50.140;18.990;2024-01-06T15:12:11;42.20;33.97;56.90;;
77134;Laerm;25175;50.140;18.990;2024-01-06T15:15:17;39.19;33.76;56.65;;
77134;Laerm;25175;50.140;18.990;2024-01-06T15:18:25;48.40;34.87;64.40;;
77134;Laerm;25175;50.140;18.990;2024-01-06T15:21:30;42.78;34.29;59.42;;
77134;Laerm;25175;50.140;18.990;2024-01-06T15:24:35;44.67;34.40;59.92;;
77134;Laerm;25175;50.140;18.990;2024-01-06T15:27:40;45.49;34.41;60.21;;
77134;Laerm;25175;50.140;18.990;2024-01-06T15:30:45;43.11;34.71;60.38;;
77134;Laerm;25175;50.140;18.990;2024-01-06T15:33:52;47.84;35.17;58.46;;
77134;Laerm;25175;50.140;18.990;2024-01-06T15:36:58;42.79;34.27;55.63;;
77134;Laerm;25175;50.140;18.990;2024-01-06T15:40:03;43.24;34.45;55.26;;
77134;Laerm;25175;50.140;18.990;2024-01-06T15:43:09;43.34;34.51;58.29;;
77134;Laerm;25175;50.140;18.990;2024-01-06T15:46:13;48.11;35.05;61.50;;
77134;Laerm;25175;50.140;18.990;2024-01-06T15:49:22;47.95;35.37;65.22;;
77134;Laerm;25175;50.140;18.990;2024-01-06T15:52:28;42.99;34.79;56.27;;
77134;Laerm;25175;50.140;18.990;2024-01-06T15:55:33;44.50;35.13;58.35;;
77134;Laerm;25175;50.140;18.990;2024-01-06T15:58:39;45.89;35.08;58.57;;
77134;Laerm;25175;50.140;18.990;2024-01-06T16:01:44;46.54;35.40;59.47;;
77134;Laerm;25175;50.140;18.990;2024-01-06T16:04:52;41.77;35.70;52.21;;
77134;Laerm;25175;50.140;18.990;2024-01-06T16:08:00;41.87;35.62;57.89;;
77134;Laerm;25175;50.140;18.990;2024-01-06T16:11:10;45.59;35.36;63.81;;
77134;Laerm;25175;50.140;18.990;2024-01-06T16:14:16;44.20;35.33;57.73;;
77134;Laerm;25175;50.140;18.990;2024-01-06T16:17:21;39.69;34.93;55.15;;
77134;Laerm;25175;50.140;18.990;2024-01-06T16:20:29;40.97;35.20;56.10;;
77134;Laerm;25175;50.140;18.990;2024-01-06T16:23:35;43.88;34.87;58.79;;
77134;Laerm;25175;50.140;18.990;2024-01-06T16:26:40;41.54;34.34;55.13;;
77134;Laerm;25175;50.140;18.990;2024-01-06T16:29:45;40.79;34.53;57.78;;
77134;Laerm;25175;50.140;18.990;2024-01-06T16:32:50;42.50;34.72;57.81;;
77134;Laerm;25175;50.140;18.990;2024-01-06T16:36:00;44.46;34.61;58.50;;
77134;Laerm;25175;50.140;18.990;2024-01-06T16:39:07;41.33;34.71;59.31;;
77134;Laerm;25175;50.140;18.990;2024-01-06T16:42:11;46.92;34.28;60.75;;
77134;Laerm;25175;50.140;18.990;2024-01-06T16:45:19;42.87;34.43;59.86;;
77134;Laerm;25175;50.140;18.990;2024-01-06T16:48:23;45.33;35.09;59.57;;
77134;Laerm;25175;50.140;18.990;2024-01-06T16:51:33;36.36;33.96;56.53;;
77134;Laerm;25175;50.140;18.990;2024-01-06T16:54:37;42.48;34.16;57.87;;
77134;Laerm;25175;50.140;18.990;2024-01-06T16:57:43;41.79;34.26;55.77;;
77134;Laerm;25175;50.140;18.990;2024-01-06T17:00:48;45.33;34.34;60.13;;
77134;Laerm;25175;50.140;18.990;2024-01-06T17:03:55;46.48;34.84;59.65;;
77134;Laerm;25175;50.140;18.990;2024-01-06T17:07:04;45.58;34.77;60.26;;
77134;Laerm;25175;50.140;18.990;2024-01-06T17:10:12;46.28;34.49;58.29;;
77134;Laerm;25175;50.140;18.990;2024-01-06T17:13:16;45.90;34.17;60.21;;
77134;Laerm;25175;50.140;18.990;2024-01-06T17:16:24;43.53;34.48;59.43;;
77134;Laerm;25175;50.140;18.990;2024-01-06T17:19:28;42.66;33.92;57.54;;
77134;Laerm;25175;50.140;18.990;2024-01-06T17:22:38;38.98;33.61;53.12;;
77134;Laerm;25175;50.140;18.990;2024-01-06T17:25:43;43.16;34.73;60.55;;
77134;Laerm;25175;50.140;18.990;2024-01-06T17:28:48;37.50;33.90;50.73;;
77134;Laerm;25175;50.140;18.990;2024-01-06T17:31:53;45.59;34.43;58.31;;
77134;Laerm;25175;50.140;18.990;2024-01-06T17:34:59;44.55;33.83;55.77;;
77134;Laerm;25175;50.140;18.990;2024-01-06T17:38:08;37.41;33.73;51.21;;
77134;Laerm;25175;50.140;18.990;2024-01-06T17:41:14;44.61;34.01;59.29;;
77134;Laerm;25175;50.140;18.990;2024-01-06T17:44:18;42.86;33.90;57.13;;
77134;Laerm;25175;50.140;18.990;2024-01-06T17:47:23;44.77;34.28;58.78;;
77134;Laerm;25175;50.140;18.990;2024-01-06T17:50:28;47.24;34.61;59.39;;
77134;Laerm;25175;50.140;18.990;2024-01-06T17:53:36;39.97;34.31;54.13;;
77134;Laerm;25175;50.140;18.990;2024-01-06T17:56:40;39.70;34.09;53.61;;
77134;Laerm;25175;50.140;18.990;2024-01-06T17:59:46;44.89;34.73;60.52;;
77134;Laerm;25175;50.140;18.990;2024-01-06T18:02:53;44.78;34.47;60.71;;
77134;Laerm;25175;50.140;18.990;2024-01-06T18:05:59;40.73;34.19;54.12;;
77134;Laerm;25175;50.140;18.990;2024-01-06T18:09:07;46.63;34.58;66.72;;
77134;Laerm;25175;50.140;18.990;2024-01-06T18:12:14;44.76;34.41;59.69;;
77134;Laerm;25175;50.140;18.990;2024-01-06T18:15:20;42.70;34.73;55.33;;
77134;Laerm;25175;50.140;18.990;2024-01-06T18:18:26;40.89;34.22;53.16;;
77134;Laerm;25175;50.140;18.990;2024-01-06T18:21:32;43.92;34.31;58.93;;
77134;Laerm;25175;50.140;18.990;2024-01-06T18:24:40;38.89;34.04;53.38;;
77134;Laerm;25175;50.140;18.990;2024-01-06T18:27:45;43.10;34.30;59.35;;
77134;Laerm;25175;50.140;18.990;2024-01-06T18:30:50;38.57;34.17;52.13;;
77134;Laerm;25175;50.140;18.990;2024-01-06T18:33:56;41.04;34.25;56.57;;